Attica, Kansas
Current Conditions -  °F | °C
As of 11:15 AM on Thursday 27 Nov 2014 (Local Time) from KAVK Reporting Station
Clear Clear  
Wind Chill: 32°   Ceiling: Unl
Heat Index: 39°   Visibility: 10mi
Dew Point: 23°   Wind: 10mph
Humidity: 52%   Direction: 170°S
Pressure: 30.49"   Gusts: NA
Location:  37.24°N, 98.23°W
Report Text: KAVK 271715Z AUTO 17009KT 140V200 10SM CLR 04/M05 A3049 RMK AO2
Loading
Personal Weather Stations






























Interactive Weather Map New forecast layout! Learn more

10-Day Weather Forecast

Advertisements
Track Severe Weather on mobile